Time;durP1;ratioP1;P1;durP2;ratioP2;P2;SDS_P1;SDS_P2;PMS_P1;PMS_P2;Temp;Humidity;BMP_temperature;BMP_pressure;BME280_temperature;BME280_humidity;BME280_pressure;Samples;Min_cycle;Max_cycle;Signal;HPM_P1;HPM_P2
2021/09/26 00:00:29;;;;;;;64.55;27.85;;;;;;;;;;4929735;28;20041;-59
2021/09/26 00:02:55;;;;;;;69.28;26.85;;;;;;;;;;4951499;28;20039;-59
2021/09/26 00:05:22;;;;;;;74.60;28.08;;;;;;;;;;4925755;28;20042;-61
2021/09/26 00:07:48;;;;;;;65.68;28.23;;;;;;;;;;4952962;28;20048;-60
2021/09/26 00:10:16;;;;;;;64.07;28.02;;;;;;;;;;4948219;28;20057;-59
2021/09/26 00:12:44;;;;;;;69.35;27.55;;;;;;;;;;4949694;28;20027;-60
2021/09/26 00:15:12;;;;;;;70.93;28.52;;;;;;;;;;4954848;28;20042;-61
2021/09/26 00:17:39;;;;;;;63.63;28.23;;;;;;;;;;4949894;28;20058;-61
2021/09/26 00:20:05;;;;;;;75.50;28.60;;;;;;;;;;4944683;28;20683;-60
2021/09/26 00:22:31;;;;;;;72.57;28.05;;;;;;;;;;4968645;28;20117;-60
2021/09/26 00:24:59;;;;;;;67.60;29.35;;;;;;;;;;4943398;28;22007;-61
2021/09/26 00:27:29;;;;;;;65.07;27.88;;;;;;;;;;4937861;28;20125;-61
2021/09/26 00:29:57;;;;;;;64.22;27.50;;;;;;;;;;4927903;28;21946;-65
2021/09/26 00:32:25;;;;;;;66.30;28.08;;;;;;;;;;4944687;28;20133;-60
2021/09/26 00:34:50;;;;;;;67.45;27.60;;;;;;;;;;4943530;28;20046;-59
2021/09/26 00:37:16;;;;;;;76.57;28.30;;;;;;;;;;4926488;28;20044;-60
2021/09/26 00:39:41;;;;;;;70.55;27.52;;;;;;;;;;4945617;28;20030;-60
2021/09/26 00:42:07;;;;;;;71.35;29.23;;;;;;;;;;4923939;28;20030;-60
2021/09/26 00:44:37;;;;;;;65.20;27.08;;;;;;;;;;4942117;28;21952;-60
2021/09/26 00:47:02;;;;;;;66.07;27.00;;;;;;;;;;4929423;28;20099;-60
2021/09/26 00:49:28;;;;;;;61.03;25.85;;;;;;;;;;4944161;28;20038;-60
2021/09/26 00:51:53;;;;;;;68.65;26.02;;;;;;;;;;4941725;28;20066;-59
2021/09/26 00:54:19;;;;;;;61.80;27.35;;;;;;;;;;4924075;28;20048;-59
2021/09/26 00:56:47;;;;;;;58.15;26.23;;;;;;;;;;4949970;28;20149;-59
2021/09/26 00:59:17;;;;;;;64.47;27.02;;;;;;;;;;4952417;28;20030;-59
2021/09/26 01:01:42;;;;;;;67.50;25.58;;;;;;;;;;4958149;28;20038;-60
2021/09/26 01:04:10;;;;;;;64.90;27.35;;;;;;;;;;4940844;28;20096;-60
2021/09/26 01:06:35;;;;;;;65.15;24.58;;;;;;;;;;4967240;28;20061;-59
2021/09/26 01:09:10;;;;;;;58.70;26.02;;;;;;;;;;4942323;28;20157;-60
2021/09/26 01:11:43;;;;;;;61.42;23.42;;;;;;;;;;4949628;28;20112;-59
2021/09/26 01:14:23;;;;;;;59.17;24.38;;;;;;;;;;4959907;28;20038;-59
2021/09/26 01:17:07;;;;;;;64.90;26.13;;;;;;;;;;4950621;28;20042;-60
2021/09/26 01:19:40;;;;;;;49.67;23.83;;;;;;;;;;4927309;28;20118;-59
2021/09/26 01:22:09;;;;;;;57.67;24.83;;;;;;;;;;4927923;28;20030;-59
2021/09/26 01:24:49;;;;;;;52.92;24.30;;;;;;;;;;4945680;28;20038;-59
2021/09/26 01:27:36;;;;;;;53.50;24.70;;;;;;;;;;4927138;28;20248;-60
2021/09/26 01:30:23;;;;;;;57.23;23.97;;;;;;;;;;4950942;28;21459;-60
2021/09/26 01:33:00;;;;;;;57.33;23.27;;;;;;;;;;4967409;28;20471;-60
2021/09/26 01:35:32;;;;;;;53.88;23.35;;;;;;;;;;4943518;28;20077;-59
2021/09/26 01:38:07;;;;;;;47.40;22.40;;;;;;;;;;4959379;28;20068;-61
2021/09/26 01:40:41;;;;;;;50.28;23.05;;;;;;;;;;4942157;28;20031;-61
2021/09/26 01:43:11;;;;;;;49.22;23.25;;;;;;;;;;4948165;28;20061;-60
2021/09/26 01:45:42;;;;;;;52.45;24.30;;;;;;;;;;4958272;28;20041;-60
2021/09/26 01:48:16;;;;;;;50.72;23.02;;;;;;;;;;4966307;28;20445;-59
2021/09/26 01:50:45;;;;;;;60.90;25.05;;;;;;;;;;4952850;28;20758;-60
2021/09/26 01:53:11;;;;;;;57.33;24.25;;;;;;;;;;4941953;28;20030;-59
2021/09/26 01:55:37;;;;;;;48.35;23.02;;;;;;;;;;4924324;28;20124;-60
2021/09/26 01:58:03;;;;;;;60.10;24.80;;;;;;;;;;4923434;28;20080;-59
2021/09/26 02:00:33;;;;;;;60.80;23.80;;;;;;;;;;4926127;28;20057;-59
2021/09/26 02:02:59;;;;;;;59.30;23.02;;;;;;;;;;4959265;28;20124;-58
2021/09/26 02:05:27;;;;;;;53.95;22.42;;;;;;;;;;4959612;28;20953;-59
2021/09/26 02:07:53;;;;;;;53.78;23.80;;;;;;;;;;4934059;28;20038;-59
2021/09/26 02:10:22;;;;;;;60.28;25.27;;;;;;;;;;4926268;28;20439;-60
2021/09/26 02:12:50;;;;;;;49.95;23.63;;;;;;;;;;4956613;28;21068;-61
2021/09/26 02:15:18;;;;;;;53.22;23.40;;;;;;;;;;4951057;28;20560;-60
2021/09/26 02:17:47;;;;;;;59.92;24.02;;;;;;;;;;4948511;28;20043;-60
2021/09/26 02:20:20;;;;;;;66.45;24.33;;;;;;;;;;4942090;28;20058;-60
2021/09/26 02:22:54;;;;;;;57.10;23.55;;;;;;;;;;4957147;28;20035;-60
2021/09/26 02:25:23;;;;;;;58.73;23.90;;;;;;;;;;4957997;28;20066;-60
2021/09/26 02:27:54;;;;;;;57.95;24.80;;;;;;;;;;4965831;28;20313;-59
2021/09/26 02:30:19;;;;;;;59.10;24.67;;;;;;;;;;4964004;28;20350;-59
2021/09/26 02:32:50;;;;;;;47.83;22.90;;;;;;;;;;4958927;28;20042;-60
2021/09/26 02:35:18;;;;;;;60.53;25.15;;;;;;;;;;4946938;28;20041;-61
2021/09/26 02:37:46;;;;;;;54.30;25.98;;;;;;;;;;4940293;28;20046;-59
2021/09/26 02:40:12;;;;;;;49.85;24.17;;;;;;;;;;4956607;28;20034;-60
2021/09/26 02:42:58;;;;;;;55.17;25.48;;;;;;;;;;4965653;28;20035;-60
2021/09/26 02:45:33;;;;;;;60.17;23.47;;;;;;;;;;4952531;28;20038;-59
2021/09/26 02:48:01;;;;;;;55.10;23.58;;;;;;;;;;4953167;28;20308;-58
2021/09/26 02:50:27;;;;;;;57.90;25.35;;;;;;;;;;4953425;28;20038;-59
2021/09/26 02:52:55;;;;;;;48.05;23.45;;;;;;;;;;4939538;28;20038;-59
2021/09/26 02:55:24;;;;;;;57.88;24.30;;;;;;;;;;4952597;28;21023;-61
2021/09/26 02:57:55;;;;;;;54.30;24.17;;;;;;;;;;4966761;28;20113;-60
2021/09/26 03:00:29;;;;;;;57.60;25.05;;;;;;;;;;4951775;28;20048;-59
2021/09/26 03:03:03;;;;;;;50.67;23.40;;;;;;;;;;4945726;28;20165;-60
2021/09/26 03:05:31;;;;;;;51.95;24.48;;;;;;;;;;4961315;28;20117;-59
2021/09/26 03:07:56;;;;;;;60.30;24.90;;;;;;;;;;4954275;28;20554;-60
2021/09/26 03:10:26;;;;;;;45.50;24.38;;;;;;;;;;4932835;28;21041;-60
2021/09/26 03:12:54;;;;;;;51.40;23.45;;;;;;;;;;4960345;28;20607;-60
2021/09/26 03:15:20;;;;;;;52.92;22.38;;;;;;;;;;4913024;28;20078;-60
2021/09/26 03:17:45;;;;;;;48.13;24.33;;;;;;;;;;4952752;28;20152;-59
2021/09/26 03:20:13;;;;;;;48.65;23.42;;;;;;;;;;4952283;28;20070;-59
2021/09/26 03:22:38;;;;;;;59.00;23.75;;;;;;;;;;4942381;28;20053;-61
2021/09/26 03:25:07;;;;;;;51.45;23.30;;;;;;;;;;4952696;28;20034;-60
2021/09/26 03:27:32;;;;;;;52.03;24.55;;;;;;;;;;4950948;28;20090;-60
2021/09/26 03:30:03;;;;;;;47.00;22.33;;;;;;;;;;4951775;28;20033;-61
2021/09/26 03:32:31;;;;;;;54.97;23.13;;;;;;;;;;4966330;28;20084;-59
2021/09/26 03:34:59;;;;;;;51.25;22.77;;;;;;;;;;4954315;28;20039;-60
2021/09/26 03:37:29;;;;;;;50.40;24.42;;;;;;;;;;4944993;28;20046;-60
2021/09/26 03:39:54;;;;;;;68.68;24.38;;;;;;;;;;4920487;28;20443;-62
2021/09/26 03:42:22;;;;;;;58.85;25.13;;;;;;;;;;4957618;28;20059;-60
2021/09/26 03:44:47;;;;;;;57.53;24.25;;;;;;;;;;4928293;28;20197;-60
2021/09/26 03:47:15;;;;;;;52.30;24.33;;;;;;;;;;4949632;28;20026;-60
2021/09/26 03:49:41;;;;;;;52.65;25.05;;;;;;;;;;4945311;28;20039;-60
2021/09/26 03:52:06;;;;;;;49.22;24.30;;;;;;;;;;4945588;28;20045;-60
2021/09/26 03:54:34;;;;;;;53.75;24.48;;;;;;;;;;4952049;28;20069;-60
2021/09/26 03:57:02;;;;;;;55.28;24.17;;;;;;;;;;4949709;28;20062;-60
2021/09/26 03:59:28;;;;;;;58.53;24.83;;;;;;;;;;4965173;28;20064;-60
2021/09/26 04:01:53;;;;;;;59.50;25.42;;;;;;;;;;4949463;28;20141;-61
2021/09/26 04:04:21;;;;;;;54.47;23.67;;;;;;;;;;4945053;28;20113;-60
2021/09/26 04:06:46;;;;;;;52.90;24.60;;;;;;;;;;4937563;28;20592;-60
2021/09/26 04:09:12;;;;;;;60.88;24.60;;;;;;;;;;4931911;28;20042;-60
2021/09/26 04:11:40;;;;;;;62.03;24.92;;;;;;;;;;4950297;28;20042;-60
2021/09/26 04:14:08;;;;;;;56.80;24.30;;;;;;;;;;4964002;28;20053;-61
2021/09/26 04:16:36;;;;;;;53.28;24.25;;;;;;;;;;4947058;28;20030;-58
2021/09/26 04:19:02;;;;;;;53.60;24.48;;;;;;;;;;4930420;28;20549;-59
2021/09/26 04:21:30;;;;;;;60.03;25.92;;;;;;;;;;4957215;28;20043;-59
2021/09/26 04:24:02;;;;;;;64.85;26.80;;;;;;;;;;4931818;28;20038;-60
2021/09/26 04:26:27;;;;;;;55.05;24.48;;;;;;;;;;4941236;28;20097;-60
2021/09/26 04:28:55;;;;;;;67.47;26.67;;;;;;;;;;4943470;28;20161;-61
2021/09/26 04:31:23;;;;;;;60.60;25.65;;;;;;;;;;4919402;28;20096;-59
2021/09/26 04:33:49;;;;;;;64.07;25.80;;;;;;;;;;4919756;28;20050;-59
2021/09/26 04:36:17;;;;;;;59.25;24.60;;;;;;;;;;4917094;28;20054;-59
2021/09/26 04:38:47;;;;;;;64.75;25.42;;;;;;;;;;4917929;28;20122;-60
2021/09/26 04:41:15;;;;;;;57.92;25.55;;;;;;;;;;4901706;29;20039;-59
2021/09/26 04:43:45;;;;;;;59.78;26.52;;;;;;;;;;4886827;28;20039;-59
2021/09/26 04:46:10;;;;;;;60.03;25.42;;;;;;;;;;4923320;28;20032;-59
2021/09/26 04:48:38;;;;;;;68.00;25.80;;;;;;;;;;4919274;28;20050;-59
2021/09/26 04:51:04;;;;;;;68.38;26.15;;;;;;;;;;4917149;28;20185;-60
2021/09/26 04:53:29;;;;;;;57.50;25.45;;;;;;;;;;4887558;29;20035;-61
2021/09/26 04:55:58;;;;;;;61.35;26.05;;;;;;;;;;4901106;28;20040;-59
2021/09/26 04:58:28;;;;;;;63.45;26.50;;;;;;;;;;4939031;28;20471;-60
2021/09/26 05:00:53;;;;;;;60.95;24.95;;;;;;;;;;4933339;28;20072;-59
2021/09/26 05:03:19;;;;;;;56.38;25.42;;;;;;;;;;4909385;28;20588;-60
2021/09/26 05:05:44;;;;;;;60.17;25.15;;;;;;;;;;4905790;29;20028;-60
2021/09/26 05:08:10;;;;;;;65.85;25.23;;;;;;;;;;4908594;28;20578;-60
2021/09/26 05:10:37;;;;;;;54.45;25.55;;;;;;;;;;4901104;28;20103;-59
2021/09/26 05:13:05;;;;;;;60.00;26.20;;;;;;;;;;4921124;28;20035;-60
2021/09/26 05:15:33;;;;;;;59.97;25.15;;;;;;;;;;4902576;28;20058;-60
2021/09/26 05:18:01;;;;;;;54.17;25.23;;;;;;;;;;4917297;28;20612;-60
2021/09/26 05:20:27;;;;;;;58.28;25.42;;;;;;;;;;4917555;28;20043;-59
2021/09/26 05:22:53;;;;;;;58.25;23.85;;;;;;;;;;4890987;28;20032;-60
2021/09/26 05:25:23;;;;;;;53.17;24.60;;;;;;;;;;4924842;28;20094;-60
2021/09/26 05:27:48;;;;;;;59.58;24.40;;;;;;;;;;4932048;28;20119;-59
2021/09/26 05:30:14;;;;;;;54.55;25.17;;;;;;;;;;4924625;28;20679;-61
2021/09/26 05:32:40;;;;;;;55.20;24.77;;;;;;;;;;4967482;28;20105;-58
2021/09/26 05:35:06;;;;;;;56.55;24.92;;;;;;;;;;4926256;28;20038;-60
2021/09/26 05:37:31;;;;;;;61.53;24.65;;;;;;;;;;4926789;28;20142;-59
2021/09/26 05:39:59;;;;;;;62.65;25.48;;;;;;;;;;4949737;28;20516;-59
2021/09/26 05:42:27;;;;;;;57.85;24.48;;;;;;;;;;4958112;28;20030;-59
2021/09/26 05:44:53;;;;;;;62.60;25.15;;;;;;;;;;4947247;28;20041;-59
2021/09/26 05:47:21;;;;;;;57.30;24.38;;;;;;;;;;4942303;28;20165;-59
2021/09/26 05:49:49;;;;;;;52.33;23.33;;;;;;;;;;4941780;28;20603;-59
2021/09/26 05:52:14;;;;;;;53.63;25.23;;;;;;;;;;4926595;28;20049;-60
2021/09/26 05:54:46;;;;;;;58.47;25.40;;;;;;;;;;4943280;28;20035;-58
2021/09/26 05:57:18;;;;;;;48.47;23.13;;;;;;;;;;4949039;28;20045;-59
2021/09/26 05:59:45;;;;;;;49.08;23.25;;;;;;;;;;4941506;28;20026;-60
2021/09/26 06:02:11;;;;;;;53.65;23.10;;;;;;;;;;4943093;28;20070;-58
2021/09/26 06:04:37;;;;;;;48.97;22.48;;;;;;;;;;4950775;28;20042;-58
2021/09/26 06:07:08;;;;;;;47.58;21.48;;;;;;;;;;4965318;28;20039;-59
2021/09/26 06:09:33;;;;;;;45.75;20.63;;;;;;;;;;4946277;28;20042;-58
2021/09/26 06:11:59;;;;;;;39.15;19.38;;;;;;;;;;4916357;28;20273;-59
2021/09/26 06:14:27;;;;;;;35.05;18.15;;;;;;;;;;4964290;28;20034;-59
2021/09/26 06:16:57;;;;;;;38.40;19.23;;;;;;;;;;4926206;28;20062;-58
2021/09/26 06:19:22;;;;;;;30.67;18.75;;;;;;;;;;4935002;28;20118;-60
2021/09/26 06:21:48;;;;;;;31.35;16.60;;;;;;;;;;4970404;28;20042;-59
2021/09/26 06:24:19;;;;;;;27.60;16.42;;;;;;;;;;4962269;28;20034;-59
2021/09/26 06:26:47;;;;;;;28.45;15.40;;;;;;;;;;4927726;28;20414;-59
2021/09/26 06:29:13;;;;;;;27.38;15.15;;;;;;;;;;4960509;28;20117;-59
2021/09/26 06:31:41;;;;;;;28.70;15.65;;;;;;;;;;4954760;28;20060;-59
2021/09/26 06:34:08;;;;;;;27.48;14.60;;;;;;;;;;4952814;28;20041;-59
2021/09/26 06:36:36;;;;;;;23.80;14.48;;;;;;;;;;4937974;28;20061;-59
2021/09/26 06:39:04;;;;;;;25.50;13.68;;;;;;;;;;4929842;28;20123;-59
2021/09/26 06:41:31;;;;;;;22.08;12.98;;;;;;;;;;4941791;28;20042;-58
2021/09/26 06:43:56;;;;;;;27.67;14.10;;;;;;;;;;4944059;28;20034;-58
2021/09/26 06:46:24;;;;;;;20.98;13.00;;;;;;;;;;4928370;28;20063;-58
2021/09/26 06:48:52;;;;;;;25.27;12.77;;;;;;;;;;4944312;28;20065;-59
2021/09/26 06:51:20;;;;;;;19.63;12.32;;;;;;;;;;4945311;28;20121;-59
2021/09/26 06:53:45;;;;;;;17.40;11.35;;;;;;;;;;4940106;28;20669;-61
2021/09/26 06:56:13;;;;;;;20.48;12.30;;;;;;;;;;4943625;28;20039;-60
2021/09/26 06:58:41;;;;;;;19.70;12.00;;;;;;;;;;4932182;28;20165;-59
2021/09/26 07:01:10;;;;;;;19.13;12.00;;;;;;;;;;4950384;28;20027;-59
2021/09/26 07:03:36;;;;;;;24.05;12.40;;;;;;;;;;4960838;28;20460;-60
2021/09/26 07:06:04;;;;;;;17.45;11.38;;;;;;;;;;4967770;28;20034;-59
2021/09/26 07:08:29;;;;;;;17.75;10.13;;;;;;;;;;4960895;28;20059;-60
2021/09/26 07:10:57;;;;;;;16.42;10.63;;;;;;;;;;4953207;28;20038;-59
2021/09/26 07:13:25;;;;;;;19.35;9.82;;;;;;;;;;4929025;28;20109;-59
2021/09/26 07:15:50;;;;;;;16.45;10.45;;;;;;;;;;4943895;28;20042;-60
2021/09/26 07:18:18;;;;;;;18.55;10.48;;;;;;;;;;4958012;28;20771;-60
2021/09/26 07:20:46;;;;;;;15.38;10.18;;;;;;;;;;4961096;28;20116;-62
2021/09/26 07:23:11;;;;;;;15.07;9.30;;;;;;;;;;4938626;28;20038;-59
2021/09/26 07:25:39;;;;;;;14.55;9.27;;;;;;;;;;4943803;28;20039;-60
2021/09/26 07:28:05;;;;;;;14.07;9.02;;;;;;;;;;4924792;28;20035;-61
2021/09/26 07:30:33;;;;;;;15.88;8.80;;;;;;;;;;4957043;28;21038;-60
2021/09/26 07:32:58;;;;;;;13.57;9.30;;;;;;;;;;4953144;28;20038;-61
2021/09/26 07:35:24;;;;;;;12.13;9.18;;;;;;;;;;4928773;28;20564;-59
2021/09/26 07:37:50;;;;;;;15.45;7.65;;;;;;;;;;4963885;28;20981;-61
2021/09/26 07:40:20;;;;;;;12.52;8.20;;;;;;;;;;4944630;28;20177;-61
2021/09/26 07:42:51;;;;;;;12.48;8.20;;;;;;;;;;4944188;28;20022;-60
2021/09/26 07:45:17;;;;;;;12.45;8.15;;;;;;;;;;4967894;28;20040;-61
2021/09/26 07:47:47;;;;;;;13.00;8.50;;;;;;;;;;4959062;28;20034;-61
2021/09/26 07:50:15;;;;;;;13.15;8.07;;;;;;;;;;4948774;28;20402;-60
2021/09/26 07:52:42;;;;;;;12.13;7.85;;;;;;;;;;4934401;28;20118;-62
2021/09/26 07:55:08;;;;;;;13.32;7.90;;;;;;;;;;4943807;28;20599;-61
2021/09/26 07:57:34;;;;;;;11.98;7.45;;;;;;;;;;4964912;28;20508;-62
2021/09/26 08:00:04;;;;;;;12.60;8.55;;;;;;;;;;4929955;28;20683;-61
2021/09/26 08:02:30;;;;;;;16.20;8.30;;;;;;;;;;4934046;28;20053;-61
2021/09/26 08:04:55;;;;;;;10.77;7.20;;;;;;;;;;4959534;28;20023;-61
2021/09/26 08:07:24;;;;;;;12.52;7.32;;;;;;;;;;4965256;28;20037;-61
2021/09/26 08:09:49;;;;;;;9.07;7.13;;;;;;;;;;4958361;28;20035;-62
2021/09/26 08:12:17;;;;;;;11.75;7.70;;;;;;;;;;4967798;28;20045;-62
2021/09/26 08:14:43;;;;;;;10.95;7.68;;;;;;;;;;4969257;28;20116;-60
2021/09/26 08:17:09;;;;;;;12.88;7.22;;;;;;;;;;4966790;28;20417;-61
2021/09/26 08:19:37;;;;;;;13.73;7.22;;;;;;;;;;4943994;28;20030;-61
2021/09/26 08:22:06;;;;;;;9.48;6.78;;;;;;;;;;4927053;28;20069;-61
2021/09/26 08:24:32;;;;;;;12.38;6.95;;;;;;;;;;4944400;28;20018;-61
2021/09/26 08:26:59;;;;;;;9.32;6.82;;;;;;;;;;4959212;28;20022;-61
2021/09/26 08:29:27;;;;;;;8.88;6.10;;;;;;;;;;4927000;28;20029;-61
2021/09/26 08:31:53;;;;;;;11.48;7.50;;;;;;;;;;4951807;28;20136;-60
2021/09/26 08:34:21;;;;;;;12.80;6.82;;;;;;;;;;4964679;28;20026;-61
2021/09/26 08:36:46;;;;;;;8.45;6.50;;;;;;;;;;4948849;28;22037;-60
2021/09/26 08:39:14;;;;;;;8.98;6.32;;;;;;;;;;4957868;28;20110;-61
2021/09/26 08:41:45;;;;;;;14.93;7.70;;;;;;;;;;4927398;28;20038;-59
2021/09/26 08:44:13;;;;;;;9.80;6.85;;;;;;;;;;4945753;28;20037;-61
2021/09/26 08:46:39;;;;;;;9.60;6.00;;;;;;;;;;4945870;28;20053;-61
2021/09/26 08:49:07;;;;;;;10.10;6.72;;;;;;;;;;4958714;28;20038;-60
2021/09/26 08:51:35;;;;;;;9.90;6.03;;;;;;;;;;4941241;28;20039;-61
2021/09/26 08:54:02;;;;;;;10.70;6.40;;;;;;;;;;4939312;28;20049;-61
2021/09/26 08:56:30;;;;;;;10.27;6.93;;;;;;;;;;4973520;28;20034;-61
2021/09/26 08:58:55;;;;;;;11.75;5.97;;;;;;;;;;4967009;28;20477;-62
2021/09/26 09:01:28;;;;;;;9.00;6.28;;;;;;;;;;4956311;28;20035;-61
2021/09/26 09:03:59;;;;;;;9.35;6.25;;;;;;;;;;4941369;28;20065;-62
2021/09/26 09:06:42;;;;;;;11.25;7.03;;;;;;;;;;4927102;28;20030;-62
2021/09/26 09:09:08;;;;;;;12.77;7.03;;;;;;;;;;4926507;28;21055;-62
2021/09/26 09:11:36;;;;;;;11.00;6.45;;;;;;;;;;4949076;28;20042;-61
2021/09/26 09:14:04;;;;;;;9.70;6.60;;;;;;;;;;4975106;28;20030;-62
2021/09/26 09:16:33;;;;;;;10.35;6.50;;;;;;;;;;4942422;28;20097;-61
2021/09/26 09:19:21;;;;;;;12.55;6.68;;;;;;;;;;4968004;28;20129;-62
2021/09/26 09:22:11;;;;;;;9.77;6.82;;;;;;;;;;4959392;28;20133;-61
2021/09/26 09:24:58;;;;;;;9.70;6.05;;;;;;;;;;4968219;28;20077;-64
2021/09/26 09:27:42;;;;;;;9.20;6.57;;;;;;;;;;4964880;28;20057;-63
2021/09/26 09:30:27;;;;;;;10.32;6.05;;;;;;;;;;4946087;28;20150;-63
2021/09/26 09:33:11;;;;;;;11.77;7.28;;;;;;;;;;4971595;28;20470;-64
2021/09/26 09:35:57;;;;;;;11.23;6.45;;;;;;;;;;4947215;28;20053;-64
2021/09/26 09:38:42;;;;;;;14.25;6.63;;;;;;;;;;4965282;28;20787;-64
2021/09/26 09:41:42;;;;;;;11.07;6.13;;;;;;;;;;4951287;28;20153;-64
2021/09/26 09:44:35;;;;;;;11.35;6.43;;;;;;;;;;4947119;28;20044;-63
2021/09/26 09:47:21;;;;;;;12.45;6.70;;;;;;;;;;4954997;28;20053;-63
2021/09/26 09:50:08;;;;;;;9.65;5.93;;;;;;;;;;4953794;28;20065;-64
2021/09/26 09:52:54;;;;;;;14.63;6.78;;;;;;;;;;4968127;28;20194;-64
2021/09/26 09:55:43;;;;;;;10.23;6.13;;;;;;;;;;4965713;28;22216;-64
2021/09/26 09:58:31;;;;;;;10.95;5.80;;;;;;;;;;4964722;28;20140;-65
2021/09/26 10:01:35;;;;;;;8.18;5.40;;;;;;;;;;4966482;28;20148;-64
2021/09/26 10:04:21;;;;;;;11.50;6.20;;;;;;;;;;4945739;28;20137;-65
2021/09/26 10:07:22;;;;;;;8.90;6.13;;;;;;;;;;4960220;28;20061;-64
2021/09/26 10:10:14;;;;;;;12.57;5.32;;;;;;;;;;4966862;28;20057;-65
2021/09/26 10:13:14;;;;;;;11.88;5.70;;;;;;;;;;4967751;28;20057;-64
2021/09/26 10:15:58;;;;;;;10.63;5.57;;;;;;;;;;4967919;28;20269;-65
2021/09/26 10:18:43;;;;;;;9.70;5.47;;;;;;;;;;4968984;28;20140;-65
2021/09/26 10:21:29;;;;;;;8.13;5.65;;;;;;;;;;4968936;28;20069;-66
2021/09/26 10:24:17;;;;;;;8.35;5.70;;;;;;;;;;4947745;28;20157;-65
2021/09/26 10:27:06;;;;;;;8.60;5.45;;;;;;;;;;4955298;28;20128;-66
2021/09/26 10:29:59;;;;;;;12.50;5.25;;;;;;;;;;4965958;28;20686;-65
2021/09/26 10:32:44;;;;;;;7.93;5.40;;;;;;;;;;4968338;28;20061;-65
2021/09/26 10:35:31;;;;;;;;;;;;;;;;;;4961994;28;20041;-66
2021/09/26 10:38:16;;;;;;;14.52;5.28;;;;;;;;;;4968075;28;19979;-65
2021/09/26 10:41:07;;;;;;;5.88;4.43;;;;;;;;;;4967090;28;20156;-66
2021/09/26 10:43:52;;;;;;;13.20;4.97;;;;;;;;;;4965720;28;20045;-66
2021/09/26 10:46:42;;;;;;;9.82;5.45;;;;;;;;;;4959779;28;20097;-68
2021/09/26 10:49:38;;;;;;;8.43;4.55;;;;;;;;;;4955165;28;20877;-67
2021/09/26 10:52:31;;;;;;;6.68;4.13;;;;;;;;;;4967261;28;20100;-69
2021/09/26 10:55:15;;;;;;;9.18;4.15;;;;;;;;;;4965213;28;20548;-70
2021/09/26 10:58:02;;;;;;;6.07;4.47;;;;;;;;;;4951917;28;20122;-68
2021/09/26 11:00:54;;;;;;;6.65;4.50;;;;;;;;;;4952128;28;20057;-68
2021/09/26 11:03:40;;;;;;;7.57;4.65;;;;;;;;;;4968765;28;20077;-68
2021/09/26 11:06:28;;;;;;;7.90;4.30;;;;;;;;;;4961952;28;20053;-69
2021/09/26 11:09:14;;;;;;;5.53;4.60;;;;;;;;;;4968099;28;20068;-69
2021/09/26 11:11:58;;;;;;;8.02;4.63;;;;;;;;;;4957575;28;20387;-69
2021/09/26 11:15:04;;;;;;;7.90;5.60;;;;;;;;;;4954895;28;20048;-68
2021/09/26 11:17:49;;;;;;;9.80;5.68;;;;;;;;;;4947340;28;20040;-68
2021/09/26 11:20:32;;;;;;;6.60;4.43;;;;;;;;;;4929304;28;20577;-69
2021/09/26 11:23:06;;;;;;;6.90;4.35;;;;;;;;;;4963228;28;20031;-68
2021/09/26 11:25:52;;;;;;;10.85;4.50;;;;;;;;;;4931821;28;20070;-68
2021/09/26 11:28:25;;;;;;;7.93;5.07;;;;;;;;;;4928362;28;20560;-69
2021/09/26 11:30:56;;;;;;;9.48;4.82;;;;;;;;;;4970803;28;20899;-69
2021/09/26 11:33:22;;;;;;;6.40;4.47;;;;;;;;;;4936295;28;20034;-68
2021/09/26 11:35:50;;;;;;;7.82;4.93;;;;;;;;;;4968471;28;20504;-67
2021/09/26 11:38:19;;;;;;;10.27;5.03;;;;;;;;;;4944195;28;20042;-69
2021/09/26 11:40:55;;;;;;;13.38;5.82;;;;;;;;;;4945829;28;20108;-69
2021/09/26 11:43:25;;;;;;;8.35;5.45;;;;;;;;;;4952188;28;20113;-68
2021/09/26 11:45:57;;;;;;;8.23;5.45;;;;;;;;;;4945307;28;20034;-70
2021/09/26 11:48:37;;;;;;;8.98;4.93;;;;;;;;;;4969610;28;20127;-70
2021/09/26 11:51:08;;;;;;;9.60;5.47;;;;;;;;;;4969841;28;20026;-69
2021/09/26 11:53:37;;;;;;;7.00;5.35;;;;;;;;;;4938829;28;20446;-69
2021/09/26 11:56:16;;;;;;;11.40;6.63;;;;;;;;;;4953904;28;20873;-70
2021/09/26 11:58:44;;;;;;;11.88;5.93;;;;;;;;;;4930528;28;20121;-68
2021/09/26 12:01:10;;;;;;;9.32;5.60;;;;;;;;;;4968700;28;20034;-68
2021/09/26 12:03:42;;;;;;;9.65;5.40;;;;;;;;;;4961568;28;20038;-71
2021/09/26 12:06:14;;;;;;;9.15;6.03;;;;;;;;;;4931698;28;20092;-69
2021/09/26 12:08:40;;;;;;;11.05;5.63;;;;;;;;;;4970625;28;20662;-69
2021/09/26 12:11:11;;;;;;;12.60;5.40;;;;;;;;;;4968411;28;20034;-70
2021/09/26 12:13:47;;;;;;;11.07;5.50;;;;;;;;;;4962287;28;20037;-69
2021/09/26 12:16:15;;;;;;;12.40;5.88;;;;;;;;;;4950831;28;20583;-69
2021/09/26 12:18:50;;;;;;;10.77;5.78;;;;;;;;;;4981177;28;20034;-66
2021/09/26 12:21:19;;;;;;;14.40;6.53;;;;;;;;;;4944101;28;20027;-65
2021/09/26 12:23:44;;;;;;;10.10;5.97;;;;;;;;;;4963326;28;20030;-72
2021/09/26 12:26:12;;;;;;;14.13;6.22;;;;;;;;;;4966899;28;20034;-69
2021/09/26 12:28:41;;;;;;;12.98;5.95;;;;;;;;;;4959254;28;20069;-70
2021/09/26 12:31:07;;;;;;;8.75;6.18;;;;;;;;;;4951436;28;20764;-70
2021/09/26 12:33:45;;;;;;;12.77;5.88;;;;;;;;;;4962346;28;20042;-70
2021/09/26 12:36:15;;;;;;;14.75;7.32;;;;;;;;;;4969076;28;20823;-71
2021/09/26 12:38:41;;;;;;;12.27;6.40;;;;;;;;;;4969483;28;20034;-69
2021/09/26 12:41:12;;;;;;;19.27;7.03;;;;;;;;;;4967728;28;21120;-71
2021/09/26 12:43:48;;;;;;;15.27;6.80;;;;;;;;;;4944198;28;21048;-71
2021/09/26 12:46:21;;;;;;;11.93;5.55;;;;;;;;;;4968047;28;20027;-69
2021/09/26 12:48:49;;;;;;;12.18;6.65;;;;;;;;;;4952029;28;20068;-69
2021/09/26 12:51:21;;;;;;;10.63;6.18;;;;;;;;;;4942422;28;20034;-70
2021/09/26 12:53:50;;;;;;;14.43;6.68;;;;;;;;;;4953374;28;20114;-70
2021/09/26 12:56:20;;;;;;;13.30;6.32;;;;;;;;;;4941812;28;20143;-71
2021/09/26 12:58:52;;;;;;;12.02;6.55;;;;;;;;;;4960887;28;20037;-70
2021/09/26 13:01:26;;;;;;;12.18;5.47;;;;;;;;;;4951186;28;20096;-70
2021/09/26 13:03:58;;;;;;;9.45;6.10;;;;;;;;;;4948526;28;20084;-70
2021/09/26 13:06:24;;;;;;;11.38;6.63;;;;;;;;;;4935032;28;20033;-71
2021/09/26 13:08:52;;;;;;;13.38;6.43;;;;;;;;;;4967592;28;20514;-70
2021/09/26 13:11:34;;;;;;;10.05;6.32;;;;;;;;;;4964382;28;20034;-70
2021/09/26 13:14:05;;;;;;;12.65;6.65;;;;;;;;;;4950628;28;20048;-70
2021/09/26 13:16:46;;;;;;;10.75;5.50;;;;;;;;;;4931228;28;20065;-71
2021/09/26 13:19:40;;;;;;;12.07;6.13;;;;;;;;;;4935740;28;20042;-72
2021/09/26 13:22:12;;;;;;;13.27;6.30;;;;;;;;;;4940164;28;20038;-72
2021/09/26 13:24:41;;;;;;;8.65;6.00;;;;;;;;;;4928659;28;20057;-70
2021/09/26 13:27:15;;;;;;;11.65;6.22;;;;;;;;;;4950111;28;20026;-70
2021/09/26 13:29:43;;;;;;;11.48;6.13;;;;;;;;;;4946671;28;20042;-70
2021/09/26 13:32:18;;;;;;;9.45;5.95;;;;;;;;;;4926213;28;20046;-70
2021/09/26 13:34:54;;;;;;;8.73;5.25;;;;;;;;;;4937992;28;20031;-70
2021/09/26 13:37:21;;;;;;;7.93;5.63;;;;;;;;;;4965019;28;20027;-70
2021/09/26 13:39:53;;;;;;;7.05;4.95;;;;;;;;;;4968173;28;20051;-69
2021/09/26 13:42:19;;;;;;;7.95;4.93;;;;;;;;;;4949364;28;20037;-70
2021/09/26 13:44:45;;;;;;;9.70;4.53;;;;;;;;;;4966156;28;21304;-68
2021/09/26 13:47:11;;;;;;;8.65;5.00;;;;;;;;;;4960668;28;20038;-71
2021/09/26 13:49:36;;;;;;;6.88;5.10;;;;;;;;;;4940098;28;20133;-71
2021/09/26 13:52:05;;;;;;;7.97;4.60;;;;;;;;;;4941557;28;20038;-70
2021/09/26 13:54:31;;;;;;;9.90;4.85;;;;;;;;;;4950439;28;20048;-71
2021/09/26 13:56:59;;;;;;;8.13;4.43;;;;;;;;;;4948160;28;20445;-69
2021/09/26 13:59:25;;;;;;;5.97;4.22;;;;;;;;;;4936246;28;20049;-70
2021/09/26 14:01:56;;;;;;;9.55;4.32;;;;;;;;;;4967381;28;20108;-69
2021/09/26 14:04:21;;;;;;;8.65;4.63;;;;;;;;;;4943053;28;20061;-69
2021/09/26 14:06:47;;;;;;;6.57;4.90;;;;;;;;;;4926554;28;20042;-71
2021/09/26 14:09:14;;;;;;;6.78;4.43;;;;;;;;;;4934019;28;20097;-70
2021/09/26 14:11:42;;;;;;;8.27;4.60;;;;;;;;;;4943796;28;20026;-71
2021/09/26 14:14:11;;;;;;;5.30;3.83;;;;;;;;;;4943531;28;20158;-71
2021/09/26 14:16:39;;;;;;;5.20;3.90;;;;;;;;;;4944287;28;20064;-67
2021/09/26 14:19:09;;;;;;;5.65;4.03;;;;;;;;;;4951890;28;20128;-71
2021/09/26 14:21:37;;;;;;;7.25;4.07;;;;;;;;;;4928809;28;20034;-70
2021/09/26 14:24:09;;;;;;;6.57;3.83;;;;;;;;;;4960448;28;20414;-70
2021/09/26 14:26:40;;;;;;;6.90;4.72;;;;;;;;;;4957003;28;20065;-69
2021/09/26 14:29:06;;;;;;;7.05;4.00;;;;;;;;;;4942737;28;20038;-70
2021/09/26 14:31:31;;;;;;;8.07;5.20;;;;;;;;;;4951646;28;20050;-70
2021/09/26 14:33:57;;;;;;;9.15;4.55;;;;;;;;;;4951346;28;20114;-70
2021/09/26 14:36:24;;;;;;;6.82;4.05;;;;;;;;;;4966085;28;20034;-71
2021/09/26 14:38:52;;;;;;;7.28;4.40;;;;;;;;;;4946665;28;20038;-71
2021/09/26 14:41:19;;;;;;;4.82;4.10;;;;;;;;;;4945832;28;20620;-72
2021/09/26 14:43:45;;;;;;;7.45;5.05;;;;;;;;;;4953224;28;20033;-72
2021/09/26 14:46:15;;;;;;;7.40;4.78;;;;;;;;;;4948659;28;20149;-71
2021/09/26 14:48:43;;;;;;;7.43;5.18;;;;;;;;;;4956233;28;20658;-71